Time;durP1;ratioP1;P1;durP2;ratioP2;P2;SDS_P1;SDS_P2;PMS_P1;PMS_P2;Temp;Humidity;BMP_temperature;BMP_pressure;BME280_temperature;BME280_humidity;BME280_pressure;Samples;Min_cycle;Max_cycle;Signal;HPM_P1;HPM_P2
2022/06/03 00:01:28;;;;;;;10.32;5.42;;;;;;;27.03;53.00;101590.64;1651898;87;21539;-48
2022/06/03 00:04:03;;;;;;;11.97;5.83;;;;;;;27.03;52.90;101585.30;1652085;87;21094;-49
2022/06/03 00:06:51;;;;;;;12.58;6.20;;;;;;;27.05;52.73;101587.37;1651763;87;21019;-49
2022/06/03 00:09:44;;;;;;;12.40;6.17;;;;;;;27.05;52.65;101582.03;1595925;89;21078;-52
2022/06/03 00:12:34;;;;;;;7.90;5.00;;;;;;;27.06;52.69;101591.73;1555820;92;21109;-48
2022/06/03 00:15:46;;;;;;;8.15;5.62;;;;;;;27.06;52.72;101580.22;1534699;93;21149;-51
2022/06/03 00:18:55;;;;;;;8.65;5.30;;;;;;;27.07;52.79;101582.76;1534266;93;21115;-48
2022/06/03 00:21:42;;;;;;;10.05;5.45;;;;;;;27.05;52.99;101580.69;1560496;91;21136;-48
2022/06/03 00:24:53;;;;;;;12.63;6.37;;;;;;;27.04;53.21;101588.33;1565221;91;21572;-53
2022/06/03 00:28:00;;;;;;;12.82;6.78;;;;;;;27.01;53.81;101583.23;1561703;91;21136;-49
2022/06/03 00:30:41;;;;;;;8.80;6.20;;;;;;;26.95;54.61;101586.38;1553676;91;21140;-49
2022/06/03 00:33:45;;;;;;;8.40;5.30;;;;;;;26.93;55.11;101586.98;1551764;91;21085;-48
2022/06/03 00:36:42;;;;;;;12.35;5.92;;;;;;;26.92;55.22;101591.95;1518901;94;21117;-49
2022/06/03 00:39:36;;;;;;;8.70;5.80;;;;;;;26.91;56.16;101586.25;1519039;94;21663;-48
2022/06/03 00:42:36;;;;;;;10.88;6.50;;;;;;;26.89;57.20;101584.19;1517733;94;21107;-48
2022/06/03 00:45:14;;;;;;;9.90;6.75;;;;;;;26.87;58.11;101582.12;1513995;94;21160;-48
2022/06/03 00:48:07;;;;;;;11.15;5.92;;;;;;;26.85;58.74;101580.05;1474818;96;21655;-51
2022/06/03 00:50:54;;;;;;;9.35;5.72;;;;;;;26.84;59.21;101574.33;1566905;91;21090;-49
2022/06/03 00:53:53;;;;;;;9.93;5.75;;;;;;;26.85;59.27;101581.86;1575029;91;21169;-53
2022/06/03 00:56:45;;;;;;;14.18;5.15;;;;;;;26.84;58.65;101579.66;1574532;91;21569;-49
2022/06/03 00:59:29;;;;;;;7.22;4.67;;;;;;;26.79;57.27;101583.16;1575036;91;21051;-48
2022/06/03 01:02:08;;;;;;;9.63;5.50;;;;;;;26.75;56.37;101580.36;1572358;91;21085;-53
2022/06/03 01:05:04;;;;;;;12.68;5.75;;;;;;;26.71;56.39;101584.70;1567421;91;21150;-53
2022/06/03 01:07:43;;;;;;;10.05;5.40;;;;;;;26.68;56.33;101575.09;1570729;91;21074;-49
2022/06/03 01:10:51;;;;;;;9.63;5.83;;;;;;;26.63;56.41;101583.92;1571085;91;21062;-48
2022/06/03 01:13:49;;;;;;;7.97;5.67;;;;;;;26.59;56.68;101584.65;1610442;89;21065;-51
2022/06/03 01:16:54;;;;;;;9.65;5.47;;;;;;;26.57;57.16;101590.59;1582094;90;21086;-49
2022/06/03 01:20:11;;;;;;;9.90;5.80;;;;;;;26.54;57.71;101588.64;1574865;90;21041;-49
2022/06/03 01:23:20;;;;;;;10.82;5.72;;;;;;;26.51;57.17;101599.53;1581252;90;21546;-49
2022/06/03 01:26:21;;;;;;;8.95;5.37;;;;;;;26.51;57.17;101599.53;1585365;90;21034;-48
2022/06/03 01:29:27;;;;;;;7.08;5.03;;;;;;;26.51;56.20;101596.86;1583559;90;21558;-47
2022/06/03 01:32:17;;;;;;;5.85;4.30;;;;;;;26.50;55.36;101592.51;1577275;89;21086;-49
2022/06/03 01:35:08;;;;;;;6.95;4.08;;;;;;;26.38;54.60;101596.06;1606909;89;21609;-48
2022/06/03 01:37:55;;;;;;;8.55;4.22;;;;;;;26.38;54.60;101596.06;1573060;91;21090;-48
2022/06/03 01:40:34;;;;;;;6.47;4.10;;;;;;;26.33;53.95;101592.91;1489537;94;21126;-47
2022/06/03 01:43:32;;;;;;;5.92;4.00;;;;;;;26.32;53.82;101604.53;1527809;93;21065;-51
2022/06/03 01:46:24;;;;;;;8.63;4.50;;;;;;;26.29;53.83;101604.77;1581588;90;21076;-47
2022/06/03 01:49:00;;;;;;;9.75;3.90;;;;;;;26.28;54.01;101620.39;1566707;90;21024;-50
2022/06/03 01:51:53;;;;;;;4.90;3.65;;;;;;;26.26;54.38;101617.84;1566240;90;21068;-47
2022/06/03 01:54:57;;;;;;;9.88;3.52;;;;;;;26.26;54.39;101622.32;1568446;90;21199;-51
2022/06/03 01:57:48;;;;;;;5.85;3.95;;;;;;;26.22;54.30;101615.03;1571482;90;21060;-53
2022/06/03 02:00:35;;;;;;;6.42;3.95;;;;;;;26.20;54.15;101618.77;1575991;90;21045;-49
2022/06/03 02:03:59;;;;;;;8.80;4.10;;;;;;;26.23;54.16;101627.91;1579294;90;21552;-46
2022/06/03 02:06:55;;;;;;;4.30;3.30;;;;;;;26.24;53.91;101634.92;1603422;89;21138;-48
2022/06/03 02:10:14;;;;;;;4.20;3.17;;;;;;;26.21;53.57;101633.83;1604750;89;21078;-47
2022/06/03 02:13:21;;;;;;;7.03;3.55;;;;;;;26.19;53.14;101641.09;1625738;85;21133;-48
2022/06/03 02:16:19;;;;;;;4.00;3.60;;;;;;;26.17;52.74;101648.36;1692654;84;21014;-48
2022/06/03 02:19:07;;;;;;;4.75;3.45;;;;;;;26.14;52.62;101644.56;1770799;80;21018;-49
2022/06/03 02:21:40;;;;;;;3.30;3.00;;;;;;;26.16;52.55;101643.97;1744068;82;21035;-47
2022/06/03 02:24:39;;;;;;;5.87;3.17;;;;;;;26.15;51.60;101653.78;1750617;82;21026;-49
2022/06/03 02:28:00;;;;;;;4.30;2.75;;;;;;;26.15;51.60;101653.78;1750878;82;21061;-48
2022/06/03 02:31:05;;;;;;;4.87;2.55;;;;;;;26.18;51.46;101651.38;1746438;82;21022;-48
2022/06/03 02:34:15;;;;;;;3.25;2.80;;;;;;;26.19;51.41;101655.77;1700123;84;21069;-47
2022/06/03 02:37:11;;;;;;;4.22;2.95;;;;;;;26.20;51.31;101650.79;1750316;82;21052;-48
2022/06/03 02:40:24;;;;;;;4.22;3.25;;;;;;;26.21;51.19;101649.84;1750295;82;21046;-47
2022/06/03 02:43:21;;;;;;;5.20;3.30;;;;;;;26.20;50.79;101648.13;1679153;85;21042;-50
2022/06/03 02:46:16;;;;;;;4.85;3.10;;;;;;;26.21;50.38;101656.51;1631462;87;21618;-53
2022/06/03 02:49:03;;;;;;;6.08;3.00;;;;;;;26.17;50.16;101649.70;1629558;87;21085;-48
2022/06/03 02:52:01;;;;;;;3.30;2.62;;;;;;;26.18;49.98;101668.72;1628654;87;21081;-50
2022/06/03 02:54:48;;;;;;;3.83;2.70;;;;;;;26.16;50.09;101659.98;1627140;87;21082;-52
2022/06/03 02:57:56;;;;;;;4.00;2.87;;;;;;;26.12;50.19;101663.83;1626840;87;21062;-52
2022/06/03 03:00:54;;;;;;;6.08;2.77;;;;;;;26.13;50.30;101660.22;1608420;88;21574;-49
2022/06/03 03:03:43;;;;;;;3.00;2.70;;;;;;;26.10;50.63;101663.95;1560415;91;21112;-49
2022/06/03 03:06:30;;;;;;;4.22;2.72;;;;;;;26.12;50.67;101674.50;1541850;92;21041;-51
2022/06/03 03:09:29;;;;;;;3.52;2.60;;;;;;;26.12;50.72;101674.50;1542774;92;21104;-48
2022/06/03 03:12:35;;;;;;;5.80;2.60;;;;;;;26.09;50.62;101677.41;1540797;92;21121;-51
2022/06/03 03:15:28;;;;;;;3.17;2.65;;;;;;;26.14;50.67;101680.58;1561074;91;21097;-50
2022/06/03 03:18:35;;;;;;;4.03;2.67;;;;;;;26.15;50.51;101682.30;1561894;91;21588;-48
2022/06/03 03:21:39;;;;;;;5.50;2.90;;;;;;;26.17;50.31;101693.20;1561168;91;21089;-47
2022/06/03 03:24:58;;;;;;;6.25;2.90;;;;;;;26.21;50.11;101697.86;1595575;89;21599;-47
2022/06/03 03:28:00;;;;;;;3.02;2.42;;;;;;;26.25;49.80;101696.67;1593634;89;21108;-47
2022/06/03 03:30:55;;;;;;;5.35;2.58;;;;;;;26.30;49.54;101702.52;1567365;91;21072;-47
2022/06/03 03:34:06;;;;;;;3.83;2.77;;;;;;;26.33;49.43;101705.84;1518634;94;21117;-49
2022/06/03 03:37:18;;;;;;;6.53;3.02;;;;;;;26.39;49.24;101703.20;1494720;94;21184;-49
2022/06/03 03:40:03;;;;;;;3.75;2.52;;;;;;;26.52;49.02;101710.69;1489662;96;21674;-48
2022/06/03 03:43:01;;;;;;;5.37;2.62;;;;;;;26.77;48.51;101706.59;1511454;93;21108;-52
2022/06/03 03:45:58;;;;;;;5.67;2.77;;;;;;;27.08;47.96;101706.51;1513669;93;21657;-47
2022/06/03 03:49:00;;;;;;;3.83;2.40;;;;;;;27.49;47.23;101712.73;1515004;95;21143;-47
2022/06/03 03:51:49;;;;;;;3.98;2.62;;;;;;;27.99;46.58;101717.17;1434724;99;21121;-52
2022/06/03 03:54:58;;;;;;;4.37;2.77;;;;;;;28.67;45.50;101727.70;1428663;100;21242;-53
2022/06/03 03:57:56;;;;;;;3.05;2.67;;;;;;;29.36;44.03;101738.91;1430205;100;21129;-48
2022/06/03 04:00:41;;;;;;;5.37;2.83;;;;;;;29.96;42.83;101739.03;1426179;99;21656;-50
2022/06/03 04:03:19;;;;;;;5.08;2.60;;;;;;;30.25;42.09;101750.72;1426507;101;21161;-48
2022/06/03 04:06:16;;;;;;;4.90;2.42;;;;;;;30.18;42.16;101746.89;1426174;99;21222;-47
2022/06/03 04:09:21;;;;;;;4.83;2.52;;;;;;;29.96;42.17;101752.45;1426261;99;21189;-50
2022/06/03 04:12:09;;;;;;;3.80;2.30;;;;;;;29.57;42.27;101762.56;1485166;96;21562;-47
2022/06/03 04:15:00;;;;;;;3.47;3.00;;;;;;;29.11;42.97;101756.17;1488547;95;21655;-50
2022/06/03 04:17:37;;;;;;;3.60;2.62;;;;;;;28.76;43.54;101761.78;1456553;98;21135;-47
2022/06/03 04:20:40;;;;;;;5.05;2.70;;;;;;;28.46;44.14;101764.22;1487449;95;21746;-47
2022/06/03 04:23:49;;;;;;;4.12;2.60;;;;;;;28.21;45.19;101761.83;1499725;95;21065;-47
2022/06/03 04:26:42;;;;;;;5.30;2.95;;;;;;;27.92;45.90;101768.59;1525687;93;21110;-47
2022/06/03 04:29:35;;;;;;;5.87;3.02;;;;;;;27.72;46.94;101778.15;1532635;93;21640;-48
2022/06/03 04:32:13;;;;;;;4.42;3.40;;;;;;;27.60;46.99;101781.77;1516409;95;21547;-49
2022/06/03 04:35:01;;;;;;;7.10;3.35;;;;;;;27.50;47.25;101782.59;1529539;94;21083;-47
2022/06/03 04:38:10;;;;;;;5.47;3.15;;;;;;;27.41;47.07;101770.77;1546028;91;21058;-49
2022/06/03 04:41:15;;;;;;;3.35;2.85;;;;;;;27.34;47.05;101782.91;1624527;87;21062;-48
2022/06/03 04:44:06;;;;;;;3.77;2.83;;;;;;;27.26;47.38;101779.94;1611741;87;21078;-48
2022/06/03 04:47:30;;;;;;;7.58;3.15;;;;;;;27.22;47.85;101772.61;1612300;87;21114;-47
2022/06/03 04:50:20;;;;;;;3.35;3.05;;;;;;;27.19;48.09;101772.86;1626643;88;21093;-48
2022/06/03 04:53:21;;;;;;;3.00;2.70;;;;;;;27.24;48.24;101772.01;1577355;91;21052;-48
2022/06/03 04:56:09;;;;;;;4.47;2.50;;;;;;;27.29;48.32;101777.88;1622652;87;21066;-50
2022/06/03 04:59:17;;;;;;;4.12;2.72;;;;;;;27.34;48.57;101779.77;1609920;87;21106;-47
2022/06/03 05:02:07;;;;;;;9.00;2.40;;;;;;;27.43;48.37;101776.02;1618318;88;21558;-47
2022/06/03 05:05:01;;;;;;;4.08;2.80;;;;;;;27.55;48.47;101777.75;1626596;86;21097;-48
2022/06/03 05:07:58;;;;;;;3.65;3.00;;;;;;;27.73;47.99;101775.00;1569770;91;21181;-47
2022/06/03 05:10:36;;;;;;;4.30;2.65;;;;;;;27.92;47.25;101769.92;1517210;94;21160;-52
2022/06/03 05:13:29;;;;;;;7.17;2.72;;;;;;;28.15;46.91;101770.34;1521342;94;21065;-47
2022/06/03 05:16:21;;;;;;;8.78;2.98;;;;;;;28.37;46.34;101775.69;1583040;90;21138;-48
2022/06/03 05:18:56;;;;;;;5.75;3.05;;;;;;;28.63;45.97;101779.81;1584248;90;21070;-49
2022/06/03 05:21:49;;;;;;;2.37;2.17;;;;;;;28.86;44.96;101776.13;1585152;90;21144;-48
2022/06/03 05:24:46;;;;;;;3.47;2.58;;;;;;;29.10;44.52;101769.72;1545335;92;21093;-46
2022/06/03 05:27:40;;;;;;;3.77;2.77;;;;;;;29.33;43.75;101771.33;1553531;92;21151;-49
2022/06/03 05:30:33;;;;;;;3.50;2.70;;;;;;;29.54;43.39;101778.91;1540942;93;21077;-49
2022/06/03 05:33:32;;;;;;;4.75;2.98;;;;;;;29.67;42.83;101768.84;1566936;91;21149;-49
2022/06/03 05:36:28;;;;;;;3.40;2.40;;;;;;;29.74;42.62;101774.91;1580325;90;21125;-48
2022/06/03 05:39:43;;;;;;;4.87;2.55;;;;;;;29.82;42.92;101778.27;1554053;92;21109;-49
2022/06/03 05:42:44;;;;;;;5.40;2.70;;;;;;;29.87;42.62;101776.05;1566143;91;21107;-48
2022/06/03 05:45:57;;;;;;;5.90;2.95;;;;;;;29.91;42.35;101784.19;1508561;93;21598;-52
2022/06/03 05:48:48;;;;;;;5.20;2.27;;;;;;;29.89;42.21;101775.42;1582925;89;21094;-49
2022/06/03 05:51:41;;;;;;;5.80;2.80;;;;;;;29.89;42.41;101780.79;1578281;89;21622;-52
2022/06/03 05:54:41;;;;;;;3.67;2.67;;;;;;;29.91;42.54;101785.53;1542412;90;21088;-49
2022/06/03 05:57:31;;;;;;;4.30;2.95;;;;;;;29.97;42.39;101786.34;1504738;93;21077;-49
2022/06/03 06:00:34;;;;;;;6.50;2.77;;;;;;;30.04;42.12;101781.30;1437407;99;21050;-53
2022/06/03 06:03:48;;;;;;;7.33;2.72;;;;;;;30.18;42.31;101783.62;1435540;99;21114;-49
2022/06/03 06:06:37;;;;;;;2.77;2.52;;;;;;;30.33;41.91;101777.80;1474983;96;21101;-49
2022/06/03 06:09:34;;;;;;;4.65;2.98;;;;;;;30.46;41.30;101773.02;1475853;96;21140;-48
2022/06/03 06:12:19;;;;;;;4.58;2.72;;;;;;;30.59;41.05;101771.42;1471169;96;21085;-49
2022/06/03 06:15:13;;;;;;;4.45;2.62;;;;;;;30.76;41.21;101772.59;1473201;96;21105;-50
2022/06/03 06:18:02;;;;;;;4.10;3.00;;;;;;;30.97;40.78;101777.41;1469483;96;21623;-49
2022/06/03 06:20:53;;;;;;;3.75;2.70;;;;;;;31.20;40.11;101781.53;1475582;96;21125;-49
2022/06/03 06:23:40;;;;;;;6.37;2.65;;;;;;;31.43;39.49;101776.22;1517205;93;21055;-48
2022/06/03 06:26:32;;;;;;;3.45;2.90;;;;;;;31.65;38.86;101774.59;1532966;93;21094;-50
2022/06/03 06:29:16;;;;;;;6.10;2.75;;;;;;;31.91;38.70;101770.75;1532613;93;21063;-48
2022/06/03 06:32:35;;;;;;;3.47;2.35;;;;;;;32.21;38.03;101770.55;1589720;87;21041;-49
2022/06/03 06:35:39;;;;;;;7.65;2.75;;;;;;;32.45;38.06;101777.58;1627569;87;21048;-48
2022/06/03 06:38:26;;;;;;;3.58;2.50;;;;;;;32.71;38.08;101783.13;1670230;84;21041;-48
2022/06/03 06:41:18;;;;;;;4.22;2.67;;;;;;;32.81;38.07;101789.30;1686537;84;21057;-47
2022/06/03 06:44:31;;;;;;;6.58;3.17;;;;;;;32.81;38.09;101781.20;1688751;84;21534;-48
2022/06/03 06:47:39;;;;;;;2.77;2.25;;;;;;;32.83;37.58;101783.25;1661456;86;21526;-50
2022/06/03 06:50:23;;;;;;;4.53;2.55;;;;;;;32.74;37.63;101784.19;1670614;86;22513;-49
2022/06/03 06:53:11;;;;;;;3.12;2.47;;;;;;;32.64;38.01;101784.75;1615508;88;21533;-52
2022/06/03 06:55:52;;;;;;;2.95;2.35;;;;;;;32.57;37.67;101780.45;1614066;88;21050;-49
2022/06/03 06:58:28;;;;;;;3.08;2.47;;;;;;;32.58;37.81;101782.66;1619811;86;21179;-49
2022/06/03 07:00:56;;;;;;;3.77;2.75;;;;;;;32.62;37.82;101781.36;1662568;86;21090;-49
2022/06/03 07:03:50;;;;;;;3.65;2.00;;;;;;;32.66;37.93;101784.09;1656482;86;21050;-48
2022/06/03 07:06:44;;;;;;;7.28;2.85;;;;;;;32.81;38.07;101789.30;1641454;86;21154;-48
2022/06/03 07:09:33;;;;;;;4.67;2.45;;;;;;;33.11;37.58;101788.98;1651773;86;21108;-49
2022/06/03 07:12:10;;;;;;;4.95;2.77;;;;;;;33.41;37.06;101791.27;1645467;86;21055;-48
2022/06/03 07:14:55;;;;;;;3.30;2.20;;;;;;;33.62;36.80;101789.13;1596364;89;21106;-49
2022/06/03 07:21:01;;;;;;;3.92;2.35;;;;;;;34.01;35.94;101794.98;1513498;94;21156;-48
2022/06/03 07:23:44;;;;;;;3.60;2.20;;;;;;;34.34;35.32;101797.34;1495001;95;21596;-49
2022/06/03 07:26:31;;;;;;;3.15;2.60;;;;;;;34.52;34.64;101803.52;1490847;96;21634;-48
2022/06/03 07:29:13;;;;;;;2.72;2.02;;;;;;;34.62;34.28;101806.97;1500329;94;21122;-49
2022/06/03 07:31:59;;;;;;;2.45;2.02;;;;;;;34.68;34.22;101804.95;1504190;94;21119;-50
2022/06/03 07:34:33;;;;;;;3.52;2.10;;;;;;;34.72;33.92;101807.67;1511786;94;21110;-50
2022/06/03 07:37:35;;;;;;;4.35;2.70;;;;;;;34.67;33.81;101805.95;1510807;94;21110;-53
2022/06/03 07:40:12;;;;;;;4.40;2.17;;;;;;;34.56;33.57;101798.13;1512202;94;21093;-49
2022/06/03 07:42:58;;;;;;;4.25;2.37;;;;;;;34.41;33.94;101802.45;1511346;94;21082;-47
2022/06/03 07:45:36;;;;;;;2.87;2.10;;;;;;;34.22;33.94;101804.04;1466043;97;21124;-48
2022/06/03 07:48:13;;;;;;;2.92;2.62;;;;;;;34.00;34.27;101806.80;1465449;97;21552;-48
2022/06/03 07:51:00;;;;;;;3.42;2.40;;;;;;;33.81;34.79;101806.12;1461667;97;21116;-47
2022/06/03 07:53:50;;;;;;;3.08;2.10;;;;;;;33.64;35.10;101806.00;1486807;96;21104;-47
2022/06/03 07:56:29;;;;;;;3.02;2.02;;;;;;;33.47;35.07;101804.14;1499822;95;21094;-49
2022/06/03 07:59:00;;;;;;;3.05;2.67;;;;;;;33.32;35.45;101803.02;1501764;95;21119;-53
2022/06/03 08:01:31;;;;;;;4.75;2.72;;;;;;;33.25;35.64;101792.98;1438131;99;21105;-49
2022/06/03 08:03:57;;;;;;;4.42;2.25;;;;;;;33.16;35.70;101792.58;1468040;96;21603;-48
2022/06/03 08:10:56;;;;;;;4.53;2.35;;;;;;;33.10;36.01;101785.11;1453653;98;21703;-47
2022/06/03 08:11:46;;;;;;;2.60;2.40;;;;;;;32.99;36.24;101778.58;1498216;95;21069;-48
2022/06/03 08:14:13;;;;;;;3.08;2.45;;;;;;;32.92;36.49;101778.30;1483050;95;21106;-47
2022/06/03 08:16:42;;;;;;;4.15;2.58;;;;;;;32.88;36.78;101775.56;1482910;97;21160;-48
2022/06/03 08:19:18;;;;;;;3.10;2.58;;;;;;;32.80;37.13;101770.95;1482991;97;21592;-49
2022/06/03 08:21:54;;;;;;;8.85;3.10;;;;;;;32.77;37.50;101774.42;1437381;100;21141;-47
2022/06/03 08:24:30;;;;;;;4.62;2.75;;;;;;;32.74;37.89;101774.75;1471994;97;21139;-50
2022/06/03 08:27:13;;;;;;;3.95;2.50;;;;;;;32.71;37.45;101775.03;1452093;98;21765;-48
2022/06/03 08:29:45;;;;;;;2.35;2.15;;;;;;;32.67;37.78;101773.64;1426379;99;21163;-46
2022/06/03 08:32:19;;;;;;;3.98;2.70;;;;;;;32.64;38.46;101771.27;1435493;99;21119;-49
2022/06/03 08:34:53;;;;;;;5.78;2.65;;;;;;;32.64;38.71;101772.62;1420528;99;21144;-53
2022/06/03 08:37:23;;;;;;;4.62;2.40;;;;;;;32.65;38.77;101767.56;1439010;99;21589;-48
2022/06/03 08:39:52;;;;;;;4.28;2.70;;;;;;;32.69;38.49;101774.34;1435749;99;21120;-49
2022/06/03 08:42:30;;;;;;;4.08;2.70;;;;;;;32.73;38.22;101777.08;1478630;94;21318;-49
2022/06/03 08:45:21;;;;;;;4.60;2.58;;;;;;;32.77;37.94;101776.63;1506883;93;21084;-48
2022/06/03 08:47:57;;;;;;;4.05;2.50;;;;;;;32.80;37.40;101775.00;1503890;94;21117;-49
2022/06/03 08:50:29;;;;;;;3.70;2.37;;;;;;;32.82;36.91;101770.30;1494143;95;21190;-49
2022/06/03 08:53:23;;;;;;;3.27;2.10;;;;;;;32.85;37.32;101775.89;1477078;97;21155;-47
2022/06/03 08:56:07;;;;;;;6.92;2.52;;;;;;;32.86;37.59;101776.22;1470114;96;21167;-48
2022/06/03 08:59:01;;;;;;;4.62;2.45;;;;;;;32.85;37.73;101771.32;1462346;97;21148;-47
2022/06/03 09:01:41;;;;;;;3.50;2.03;;;;;;;32.91;37.42;101776.63;1416664;100;39739;-47
2022/06/03 09:04:33;;;;;;;4.83;2.70;;;;;;;32.96;37.29;101779.69;1388955;103;21200;-49
2022/06/03 09:07:09;;;;;;;2.10;1.90;;;;;;;33.06;37.60;101775.59;1439069;98;21132;-49
2022/06/03 09:10:09;;;;;;;2.30;2.00;;;;;;;33.10;38.04;101781.88;1439486;99;21129;-49
2022/06/03 09:13:00;;;;;;;5.00;1.90;;;;;;;33.13;38.46;101782.94;1426202;100;21663;-49
2022/06/03 09:15:29;;;;;;;2.07;1.87;;;;;;;33.13;38.33;101776.20;1427155;100;21181;-48
2022/06/03 09:18:01;;;;;;;2.70;2.17;;;;;;;33.13;37.56;101773.50;1430622;99;21121;-48
2022/06/03 09:20:36;;;;;;;3.00;1.90;;;;;;;33.14;38.17;101771.13;1438402;99;21131;-48
2022/06/03 09:23:10;;;;;;;2.67;2.37;;;;;;;33.14;38.08;101772.48;1435930;100;21116;-50
2022/06/03 09:25:48;;;;;;;4.45;2.27;;;;;;;33.18;37.64;101773.04;1440307;100;21112;-48
2022/06/03 09:28:19;;;;;;;3.25;2.02;;;;;;;33.21;37.14;101778.11;1435124;100;21185;-48
2022/06/03 09:30:46;;;;;;;3.37;2.12;;;;;;;33.21;36.99;101781.66;1468998;96;21100;-48
2022/06/03 09:33:16;;;;;;;11.53;2.42;;;;;;;33.20;37.22;101774.55;1519607;94;21597;-48
2022/06/03 09:35:45;;;;;;;4.65;2.02;;;;;;;33.21;37.37;101783.01;1490803;95;21582;-49
2022/06/03 09:38:12;;;;;;;4.28;1.90;;;;;;;33.20;37.36;101788.57;1510354;93;21099;-48
2022/06/03 09:40:44;;;;;;;2.50;2.22;;;;;;;33.20;37.16;101796.14;1517284;93;21141;-49
2022/06/03 09:43:27;;;;;;;5.15;2.40;;;;;;;33.22;37.49;101802.22;1598181;89;21557;-50
2022/06/03 09:45:56;;;;;;;3.27;1.87;;;;;;;33.25;37.29;101795.67;1601170;89;21102;-52
2022/06/03 09:48:27;;;;;;;3.37;2.10;;;;;;;33.26;37.18;101809.00;1669746;86;21553;-49
2022/06/03 09:50:55;;;;;;;2.70;2.45;;;;;;;33.29;37.80;101799.77;1668577;86;21005;-51
2022/06/03 09:53:26;;;;;;;5.72;2.40;;;;;;;33.30;37.67;101799.63;1669002;85;21082;-48
2022/06/03 09:55:55;;;;;;;;;;;;;;;33.32;37.86;101800.32;1668346;86;21005;-49
2022/06/03 09:58:24;;;;;;;2.80;2.55;;;;;;;33.35;37.73;101805.39;1669936;84;20109;-53
2022/06/03 10:00:54;;;;;;;2.83;1.90;;;;;;;33.37;37.84;101810.63;1731234;80;21010;-49
2022/06/03 10:03:21;;;;;;;6.78;2.30;;;;;;;33.37;36.70;101811.48;1777482;80;21039;-48
2022/06/03 10:05:50;;;;;;;4.42;2.20;;;;;;;33.37;36.21;101810.13;1774752;80;21502;-48
2022/06/03 10:08:21;;;;;;;3.55;2.50;;;;;;;33.41;36.64;101812.86;1776008;80;21046;-51
2022/06/03 10:13:39;;;;;;;2.27;1.95;;;;;;;33.51;37.49;101808.25;1785309;80;21034;-48
2022/06/03 10:16:08;;;;;;;2.00;1.90;;;;;;;33.52;37.33;101808.61;1769172;80;21023;-48
2022/06/03 10:18:49;;;;;;;3.25;2.05;;;;;;;33.56;37.19;101810.48;1784050;80;21021;-48
2022/06/03 10:21:23;;;;;;;3.55;2.05;;;;;;;33.60;37.44;101804.62;1750190;82;21632;-50
2022/06/03 10:23:57;;;;;;;3.77;2.35;;;;;;;33.63;36.63;101808.34;1750645;82;21019;-48
2022/06/03 10:26:38;;;;;;;2.75;1.67;;;;;;;33.65;36.45;101804.16;1709534;84;21072;-49
2022/06/03 10:29:10;;;;;;;4.15;2.12;;;;;;;33.67;36.38;101810.75;1739748;82;21558;-47
2022/06/03 10:31:36;;;;;;;4.10;2.10;;;;;;;33.69;35.93;101807.38;1750547;82;21486;-48
2022/06/03 10:34:12;;;;;;;2.22;1.85;;;;;;;33.69;35.62;101818.19;1750275;82;20986;-48
2022/06/03 10:36:42;;;;;;;1.85;1.75;;;;;;;33.71;35.28;101816.17;1750505;82;21042;-48
2022/06/03 10:39:16;;;;;;;4.75;1.90;;;;;;;33.72;34.90;101816.01;1750869;82;21462;-48
2022/06/03 10:41:47;;;;;;;2.37;1.80;;;;;;;33.74;34.66;101821.27;1692866;85;21076;-50
2022/06/03 10:44:19;;;;;;;3.35;1.62;;;;;;;33.72;34.59;101811.13;1695396;85;21078;-48
2022/06/03 10:47:02;;;;;;;2.95;1.77;;;;;;;33.71;34.74;101814.82;1695417;85;21029;-48
2022/06/03 10:49:30;;;;;;;2.20;1.80;;;;;;;33.72;34.81;101815.19;1672064;86;21061;-49
2022/06/03 11:03:29;;;;;;;2.12;1.52;;;;;;;33.71;35.04;101835.07;1570164;90;21046;-49
2022/06/03 11:05:55;;;;;;;2.47;1.62;;;;;;;33.71;35.28;101829.18;1513024;94;21613;-47
2022/06/03 11:08:24;;;;;;;6.75;2.25;;;;;;;33.73;35.47;101831.22;1512957;94;21102;-49
2022/06/03 11:10:54;;;;;;;2.30;2.10;;;;;;;33.77;35.46;101824.50;1513573;94;21657;-48
2022/06/03 11:13:30;;;;;;;6.40;1.87;;;;;;;33.81;35.08;101829.07;1513372;94;21619;-49
2022/06/03 11:16:13;;;;;;;2.98;2.00;;;;;;;33.83;35.07;101830.61;1505400;94;21138;-48
2022/06/03 11:18:41;;;;;;;2.27;1.92;;;;;;;33.86;35.17;101830.81;1502277;95;21087;-49
2022/06/03 11:21:24;;;;;;;3.40;1.50;;;;;;;33.87;34.75;101829.78;1503204;95;21122;-48
2022/06/03 11:23:53;;;;;;;6.83;1.80;;;;;;;33.86;34.64;101830.81;1503030;95;21047;-48
2022/06/03 11:26:28;;;;;;;2.98;2.05;;;;;;;33.82;34.49;101826.20;1510772;94;21070;-48
2022/06/03 11:29:00;;;;;;;1.80;1.67;;;;;;;33.80;34.86;101826.05;1537370;93;21127;-48
2022/06/03 11:31:35;;;;;;;2.40;1.80;;;;;;;33.80;34.91;101826.05;1532618;93;21083;-47
2022/06/03 11:34:23;;;;;;;2.70;1.98;;;;;;;33.81;35.21;101828.58;1534454;92;21098;-48
2022/06/03 11:36:58;;;;;;;2.72;1.98;;;;;;;33.82;35.21;101829.43;1534422;93;21592;-49
2022/06/03 11:39:42;;;;;;;2.37;1.92;;;;;;;33.83;35.26;101825.70;1571656;91;21591;-50
2022/06/03 11:42:37;;;;;;;3.47;2.00;;;;;;;33.84;35.26;101819.31;1577960;91;21594;-51
2022/06/03 11:45:19;;;;;;;2.95;2.08;;;;;;;33.83;35.28;101823.01;1577808;91;21090;-49
2022/06/03 11:47:56;;;;;;;4.08;1.92;;;;;;;33.83;35.09;101818.46;1574973;91;21025;-48
2022/06/03 11:50:26;;;;;;;4.65;1.92;;;;;;;33.85;35.08;101810.20;1532025;93;21102;-52
2022/06/03 11:52:55;;;;;;;3.33;1.90;;;;;;;33.87;35.00;101817.63;1536829;93;21106;-48
2022/06/03 11:55:25;;;;;;;2.80;2.00;;;;;;;33.87;35.05;101818.98;1532956;93;21130;-47
2022/06/03 11:58:07;;;;;;;3.45;2.00;;;;;;;33.87;35.04;101821.69;1535244;93;21110;-50
2022/06/03 12:00:39;;;;;;;2.50;1.98;;;;;;;33.87;34.89;101819.84;1505403;95;21114;-49
2022/06/03 12:03:44;;;;;;;2.83;1.90;;;;;;;33.87;34.76;101818.98;1520573;92;21132;-52
2022/06/03 12:06:19;;;;;;;4.67;2.10;;;;;;;33.85;34.74;101812.89;1544973;92;21608;-47
2022/06/03 12:09:10;;;;;;;2.92;1.82;;;;;;;33.86;34.75;101809.20;1545585;92;21002;-49
2022/06/03 12:14:58;;;;;;;2.70;1.75;;;;;;;33.88;34.50;101806.67;1476795;96;22154;-48
2022/06/03 12:17:31;;;;;;;5.67;2.72;;;;;;;33.90;34.53;101806.53;1486540;96;21059;-48
2022/06/03 12:19:59;;;;;;;4.28;2.30;;;;;;;33.88;34.47;101804.49;1486647;96;21704;-49
2022/06/03 12:22:35;;;;;;;2.50;1.98;;;;;;;33.89;34.24;101800.77;1485620;96;21156;-52
2022/06/03 12:25:05;;;;;;;2.00;1.80;;;;;;;33.90;34.23;101799.25;1487020;96;21101;-49
2022/06/03 12:27:37;;;;;;;3.15;1.82;;;;;;;33.92;34.24;101797.77;1492196;94;21115;-49
2022/06/03 12:30:31;;;;;;;2.35;2.02;;;;;;;33.94;34.14;101795.75;1572029;91;21022;-47
2022/06/03 12:33:08;;;;;;;1.95;1.75;;;;;;;33.96;34.00;101796.44;1571894;91;21089;-48
2022/06/03 12:35:50;;;;;;;2.25;1.72;;;;;;;33.98;34.01;101789.02;1570741;91;21045;-48
2022/06/03 12:38:25;;;;;;;4.12;2.10;;;;;;;34.00;34.02;101793.30;1540192;93;21072;-49
2022/06/03 12:40:58;;;;;;;2.92;1.75;;;;;;;34.04;33.81;101787.06;1540333;93;21112;-48
2022/06/03 12:43:53;;;;;;;4.12;2.00;;;;;;;34.06;33.64;101788.61;1521571;94;21081;-48
2022/06/03 12:46:42;;;;;;;3.67;2.05;;;;;;;34.07;33.56;101794.83;1530038;91;21043;-51
2022/06/03 12:49:25;;;;;;;3.05;1.60;;;;;;;34.06;33.44;101786.40;1558678;92;21038;-50
2022/06/03 12:52:05;;;;;;;2.92;1.67;;;;;;;34.05;33.56;101788.74;1543104;92;21609;-47
2022/06/03 12:54:32;;;;;;;3.37;2.00;;;;;;;34.08;33.48;101791.14;1542880;92;21121;-47
2022/06/03 12:57:12;;;;;;;7.72;2.52;;;;;;;34.12;33.55;101793.86;1552472;91;21057;-47
2022/06/03 12:59:59;;;;;;;3.02;1.75;;;;;;;34.13;33.47;101788.78;1555144;91;21573;-50
2022/06/03 13:02:34;;;;;;;2.65;1.80;;;;;;;34.13;33.33;101791.48;1627100;86;21580;-50
2022/06/03 13:05:10;;;;;;;3.40;1.90;;;;;;;34.11;33.32;101789.45;1650181;86;21113;-47
2022/06/03 13:08:01;;;;;;;4.03;1.75;;;;;;;34.10;33.66;101785.07;1638781;86;21050;-48
2022/06/03 13:10:30;;;;;;;4.90;1.92;;;;;;;34.11;33.82;101796.20;1641689;86;21035;-51
2022/06/03 13:13:30;;;;;;;4.62;1.72;;;;;;;34.09;33.91;101802.27;1638048;86;21022;-49
2022/06/03 13:16:36;;;;;;;1.85;1.70;;;;;;;34.06;34.32;101802.61;1585233;89;21105;-48
2022/06/03 13:19:18;;;;;;;3.60;1.80;;;;;;;34.03;34.17;101794.81;1611024;89;21029;-48